sensor_id;sensor_type;location;lat;lon;timestamp;P1;durP1;ratioP1;P2;durP2;ratioP2
12122;SDS011;6125;59.628;17.852;2023-03-20T00:00:41;3.00;;;2.00;;
12122;SDS011;6125;59.628;17.852;2023-03-20T00:03:12;3.07;;;2.13;;
12122;SDS011;6125;59.628;17.852;2023-03-20T00:05:40;7.43;;;2.20;;
12122;SDS011;6125;59.628;17.852;2023-03-20T00:08:07;2.20;;;2.00;;
12122;SDS011;6125;59.628;17.852;2023-03-20T00:10:35;3.53;;;2.00;;
12122;SDS011;6125;59.628;17.852;2023-03-20T00:13:04;1.97;;;1.73;;
12122;SDS011;6125;59.628;17.852;2023-03-20T00:15:34;2.23;;;1.80;;
12122;SDS011;6125;59.628;17.852;2023-03-20T00:18:03;2.80;;;2.23;;
12122;SDS011;6125;59.628;17.852;2023-03-20T00:20:38;3.00;;;2.37;;
12122;SDS011;6125;59.628;17.852;2023-03-20T00:23:05;2.30;;;2.07;;
12122;SDS011;6125;59.628;17.852;2023-03-20T00:25:32;3.23;;;2.47;;
12122;SDS011;6125;59.628;17.852;2023-03-20T00:28:22;2.53;;;2.20;;
12122;SDS011;6125;59.628;17.852;2023-03-20T00:31:03;2.63;;;2.20;;
12122;SDS011;6125;59.628;17.852;2023-03-20T00:33:31;2.57;;;2.27;;
12122;SDS011;6125;59.628;17.852;2023-03-20T00:36:00;3.87;;;2.20;;
12122;SDS011;6125;59.628;17.852;2023-03-20T00:38:27;3.20;;;2.20;;
12122;SDS011;6125;59.628;17.852;2023-03-20T00:40:54;2.80;;;2.00;;
12122;SDS011;6125;59.628;17.852;2023-03-20T00:43:21;3.13;;;2.30;;
12122;SDS011;6125;59.628;17.852;2023-03-20T00:45:48;3.00;;;1.90;;
12122;SDS011;6125;59.628;17.852;2023-03-20T00:48:15;8.87;;;2.10;;
12122;SDS011;6125;59.628;17.852;2023-03-20T00:50:43;3.03;;;2.30;;
12122;SDS011;6125;59.628;17.852;2023-03-20T00:53:12;2.93;;;2.33;;
12122;SDS011;6125;59.628;17.852;2023-03-20T00:55:39;4.07;;;2.77;;
12122;SDS011;6125;59.628;17.852;2023-03-20T00:58:06;4.53;;;2.70;;
12122;SDS011;6125;59.628;17.852;2023-03-20T01:00:37;3.83;;;2.43;;
12122;SDS011;6125;59.628;17.852;2023-03-20T01:03:10;3.27;;;2.30;;
12122;SDS011;6125;59.628;17.852;2023-03-20T01:05:39;4.47;;;2.40;;
12122;SDS011;6125;59.628;17.852;2023-03-20T01:08:15;4.23;;;2.50;;
12122;SDS011;6125;59.628;17.852;2023-03-20T01:10:44;6.10;;;2.80;;
12122;SDS011;6125;59.628;17.852;2023-03-20T01:13:16;3.53;;;2.47;;
12122;SDS011;6125;59.628;17.852;2023-03-20T01:15:45;3.47;;;2.50;;
12122;SDS011;6125;59.628;17.852;2023-03-20T01:18:13;3.10;;;2.20;;
12122;SDS011;6125;59.628;17.852;2023-03-20T01:20:42;3.90;;;3.00;;
12122;SDS011;6125;59.628;17.852;2023-03-20T01:23:10;4.87;;;2.60;;
12122;SDS011;6125;59.628;17.852;2023-03-20T01:25:39;5.20;;;2.90;;
12122;SDS011;6125;59.628;17.852;2023-03-20T01:28:10;3.43;;;2.60;;
12122;SDS011;6125;59.628;17.852;2023-03-20T01:30:47;4.77;;;2.57;;
12122;SDS011;6125;59.628;17.852;2023-03-20T01:33:16;3.67;;;2.40;;
12122;SDS011;6125;59.628;17.852;2023-03-20T01:35:45;4.03;;;2.77;;
12122;SDS011;6125;59.628;17.852;2023-03-20T01:38:14;3.33;;;2.47;;
12122;SDS011;6125;59.628;17.852;2023-03-20T01:40:52;3.83;;;2.50;;
12122;SDS011;6125;59.628;17.852;2023-03-20T01:43:21;3.13;;;2.40;;
12122;SDS011;6125;59.628;17.852;2023-03-20T01:45:53;4.07;;;2.43;;
12122;SDS011;6125;59.628;17.852;2023-03-20T01:48:25;4.00;;;2.90;;
12122;SDS011;6125;59.628;17.852;2023-03-20T01:51:02;4.10;;;2.40;;
12122;SDS011;6125;59.628;17.852;2023-03-20T01:53:29;4.20;;;3.17;;
12122;SDS011;6125;59.628;17.852;2023-03-20T01:55:58;5.20;;;3.03;;
12122;SDS011;6125;59.628;17.852;2023-03-20T01:58:27;4.57;;;3.10;;
12122;SDS011;6125;59.628;17.852;2023-03-20T02:00:58;4.37;;;3.13;;
12122;SDS011;6125;59.628;17.852;2023-03-20T02:03:25;5.60;;;2.90;;
12122;SDS011;6125;59.628;17.852;2023-03-20T02:05:53;3.30;;;2.60;;
12122;SDS011;6125;59.628;17.852;2023-03-20T02:08:22;5.23;;;3.17;;
12122;SDS011;6125;59.628;17.852;2023-03-20T02:10:52;5.33;;;3.13;;
12122;SDS011;6125;59.628;17.852;2023-03-20T02:13:22;5.80;;;3.37;;
12122;SDS011;6125;59.628;17.852;2023-03-20T02:15:56;5.03;;;3.13;;
12122;SDS011;6125;59.628;17.852;2023-03-20T02:18:25;4.43;;;3.03;;
12122;SDS011;6125;59.628;17.852;2023-03-20T02:21:02;4.53;;;2.73;;
12122;SDS011;6125;59.628;17.852;2023-03-20T02:23:59;5.67;;;2.93;;
12122;SDS011;6125;59.628;17.852;2023-03-20T02:26:51;4.63;;;2.90;;
12122;SDS011;6125;59.628;17.852;2023-03-20T02:29:46;3.63;;;2.87;;
12122;SDS011;6125;59.628;17.852;2023-03-20T02:38:46;7.00;;;3.10;;
12122;SDS011;6125;59.628;17.852;2023-03-20T02:41:26;3.83;;;2.83;;
12122;SDS011;6125;59.628;17.852;2023-03-20T02:43:58;3.73;;;2.97;;
12122;SDS011;6125;59.628;17.852;2023-03-20T02:46:32;5.33;;;3.07;;
12122;SDS011;6125;59.628;17.852;2023-03-20T02:49:05;7.00;;;3.20;;
12122;SDS011;6125;59.628;17.852;2023-03-20T02:51:43;4.60;;;3.27;;
12122;SDS011;6125;59.628;17.852;2023-03-20T02:54:23;4.23;;;3.03;;
12122;SDS011;6125;59.628;17.852;2023-03-20T02:56:58;10.87;;;3.77;;
12122;SDS011;6125;59.628;17.852;2023-03-20T02:59:29;4.80;;;3.07;;
12122;SDS011;6125;59.628;17.852;2023-03-20T03:02:01;6.37;;;3.03;;
12122;SDS011;6125;59.628;17.852;2023-03-20T03:04:33;3.67;;;2.83;;
12122;SDS011;6125;59.628;17.852;2023-03-20T03:07:03;6.33;;;2.80;;
12122;SDS011;6125;59.628;17.852;2023-03-20T03:09:39;6.53;;;2.73;;
12122;SDS011;6125;59.628;17.852;2023-03-20T03:12:10;4.07;;;2.80;;
12122;SDS011;6125;59.628;17.852;2023-03-20T03:14:42;7.87;;;3.23;;
12122;SDS011;6125;59.628;17.852;2023-03-20T03:17:12;8.07;;;3.40;;
12122;SDS011;6125;59.628;17.852;2023-03-20T03:19:44;5.77;;;2.97;;
12122;SDS011;6125;59.628;17.852;2023-03-20T03:22:15;7.30;;;3.37;;
12122;SDS011;6125;59.628;17.852;2023-03-20T03:24:44;8.03;;;3.60;;
12122;SDS011;6125;59.628;17.852;2023-03-20T03:27:15;4.87;;;3.27;;
12122;SDS011;6125;59.628;17.852;2023-03-20T03:29:47;10.97;;;3.73;;
12122;SDS011;6125;59.628;17.852;2023-03-20T03:32:20;6.57;;;4.10;;
12122;SDS011;6125;59.628;17.852;2023-03-20T03:34:51;11.13;;;4.03;;
12122;SDS011;6125;59.628;17.852;2023-03-20T03:37:22;7.70;;;4.10;;
12122;SDS011;6125;59.628;17.852;2023-03-20T03:39:59;5.20;;;3.60;;
12122;SDS011;6125;59.628;17.852;2023-03-20T03:42:36;7.53;;;4.13;;
12122;SDS011;6125;59.628;17.852;2023-03-20T03:45:08;5.93;;;4.10;;
12122;SDS011;6125;59.628;17.852;2023-03-20T03:47:42;6.43;;;3.63;;
12122;SDS011;6125;59.628;17.852;2023-03-20T03:50:13;6.33;;;4.07;;
12122;SDS011;6125;59.628;17.852;2023-03-20T03:52:43;9.40;;;4.50;;
12122;SDS011;6125;59.628;17.852;2023-03-20T03:55:14;10.17;;;3.77;;
12122;SDS011;6125;59.628;17.852;2023-03-20T03:57:47;5.33;;;3.63;;
12122;SDS011;6125;59.628;17.852;2023-03-20T04:00:18;5.97;;;4.00;;
12122;SDS011;6125;59.628;17.852;2023-03-20T04:02:49;5.20;;;3.80;;
12122;SDS011;6125;59.628;17.852;2023-03-20T04:05:19;6.40;;;4.80;;
12122;SDS011;6125;59.628;17.852;2023-03-20T04:07:51;7.00;;;3.97;;
12122;SDS011;6125;59.628;17.852;2023-03-20T04:10:21;6.90;;;4.00;;
12122;SDS011;6125;59.628;17.852;2023-03-20T04:12:49;7.10;;;3.90;;
12122;SDS011;6125;59.628;17.852;2023-03-20T04:15:16;5.23;;;3.47;;
12122;SDS011;6125;59.628;17.852;2023-03-20T04:17:44;4.93;;;3.53;;
12122;SDS011;6125;59.628;17.852;2023-03-20T04:20:12;4.73;;;3.70;;
12122;SDS011;6125;59.628;17.852;2023-03-20T04:22:40;4.77;;;3.40;;
12122;SDS011;6125;59.628;17.852;2023-03-20T04:25:08;5.37;;;3.13;;
12122;SDS011;6125;59.628;17.852;2023-03-20T04:27:42;3.43;;;2.93;;
12122;SDS011;6125;59.628;17.852;2023-03-20T04:30:09;4.50;;;3.17;;
12122;SDS011;6125;59.628;17.852;2023-03-20T04:32:37;3.93;;;2.87;;
12122;SDS011;6125;59.628;17.852;2023-03-20T04:35:05;4.17;;;2.80;;
12122;SDS011;6125;59.628;17.852;2023-03-20T04:37:33;3.73;;;2.97;;
12122;SDS011;6125;59.628;17.852;2023-03-20T04:40:00;3.07;;;2.77;;
12122;SDS011;6125;59.628;17.852;2023-03-20T04:42:28;3.83;;;2.77;;
12122;SDS011;6125;59.628;17.852;2023-03-20T04:44:56;5.17;;;3.60;;
12122;SDS011;6125;59.628;17.852;2023-03-20T04:47:23;5.03;;;3.50;;
12122;SDS011;6125;59.628;17.852;2023-03-20T04:49:50;3.53;;;2.90;;
12122;SDS011;6125;59.628;17.852;2023-03-20T04:52:17;4.27;;;2.90;;
12122;SDS011;6125;59.628;17.852;2023-03-20T04:54:45;4.57;;;3.30;;
12122;SDS011;6125;59.628;17.852;2023-03-20T04:57:12;4.80;;;3.37;;
12122;SDS011;6125;59.628;17.852;2023-03-20T04:59:39;4.50;;;3.70;;
12122;SDS011;6125;59.628;17.852;2023-03-20T05:02:07;4.97;;;3.93;;
12122;SDS011;6125;59.628;17.852;2023-03-20T05:04:39;5.30;;;4.07;;
12122;SDS011;6125;59.628;17.852;2023-03-20T05:07:06;4.60;;;3.47;;
12122;SDS011;6125;59.628;17.852;2023-03-20T05:09:33;4.63;;;3.70;;
12122;SDS011;6125;59.628;17.852;2023-03-20T05:12:00;4.77;;;3.77;;
12122;SDS011;6125;59.628;17.852;2023-03-20T05:14:27;4.60;;;3.97;;
12122;SDS011;6125;59.628;17.852;2023-03-20T05:16:54;4.63;;;4.20;;
12122;SDS011;6125;59.628;17.852;2023-03-20T05:19:23;5.93;;;4.20;;
12122;SDS011;6125;59.628;17.852;2023-03-20T05:21:50;5.13;;;3.83;;
12122;SDS011;6125;59.628;17.852;2023-03-20T05:24:17;5.73;;;4.13;;
12122;SDS011;6125;59.628;17.852;2023-03-20T05:26:45;5.17;;;4.13;;
12122;SDS011;6125;59.628;17.852;2023-03-20T05:29:12;8.20;;;5.10;;
12122;SDS011;6125;59.628;17.852;2023-03-20T05:31:39;6.97;;;4.40;;
12122;SDS011;6125;59.628;17.852;2023-03-20T05:34:06;5.17;;;4.40;;
12122;SDS011;6125;59.628;17.852;2023-03-20T05:36:35;7.43;;;4.70;;
12122;SDS011;6125;59.628;17.852;2023-03-20T05:39:02;7.77;;;4.43;;
12122;SDS011;6125;59.628;17.852;2023-03-20T05:41:29;6.13;;;4.23;;
12122;SDS011;6125;59.628;17.852;2023-03-20T05:43:56;7.17;;;4.23;;
12122;SDS011;6125;59.628;17.852;2023-03-20T05:46:23;7.17;;;4.40;;
12122;SDS011;6125;59.628;17.852;2023-03-20T05:48:51;18.47;;;5.07;;
12122;SDS011;6125;59.628;17.852;2023-03-20T05:51:18;9.00;;;4.60;;
12122;SDS011;6125;59.628;17.852;2023-03-20T05:53:47;7.70;;;4.83;;
12122;SDS011;6125;59.628;17.852;2023-03-20T05:56:14;13.43;;;5.27;;
12122;SDS011;6125;59.628;17.852;2023-03-20T05:58:41;11.50;;;4.93;;
12122;SDS011;6125;59.628;17.852;2023-03-20T06:01:08;8.90;;;4.87;;
12122;SDS011;6125;59.628;17.852;2023-03-20T06:03:35;10.07;;;4.87;;
12122;SDS011;6125;59.628;17.852;2023-03-20T06:06:03;10.20;;;5.27;;
12122;SDS011;6125;59.628;17.852;2023-03-20T06:08:30;11.97;;;5.30;;
12122;SDS011;6125;59.628;17.852;2023-03-20T06:11:01;7.93;;;5.27;;
12122;SDS011;6125;59.628;17.852;2023-03-20T06:13:29;7.23;;;4.43;;
12122;SDS011;6125;59.628;17.852;2023-03-20T06:15:56;9.10;;;5.33;;
12122;SDS011;6125;59.628;17.852;2023-03-20T06:18:23;9.50;;;5.73;;
12122;SDS011;6125;59.628;17.852;2023-03-20T06:20:51;14.20;;;5.83;;
12122;SDS011;6125;59.628;17.852;2023-03-20T06:23:18;12.53;;;6.50;;
12122;SDS011;6125;59.628;17.852;2023-03-20T06:25:45;11.93;;;5.83;;
12122;SDS011;6125;59.628;17.852;2023-03-20T06:28:14;29.43;;;5.97;;
12122;SDS011;6125;59.628;17.852;2023-03-20T06:30:42;12.07;;;6.07;;
12122;SDS011;6125;59.628;17.852;2023-03-20T06:33:09;26.73;;;6.97;;
12122;SDS011;6125;59.628;17.852;2023-03-20T06:35:36;14.43;;;6.70;;
12122;SDS011;6125;59.628;17.852;2023-03-20T06:38:03;14.53;;;6.43;;
12122;SDS011;6125;59.628;17.852;2023-03-20T06:40:31;19.40;;;6.90;;
12122;SDS011;6125;59.628;17.852;2023-03-20T06:42:58;13.17;;;5.87;;
12122;SDS011;6125;59.628;17.852;2023-03-20T06:45:27;11.13;;;6.43;;
12122;SDS011;6125;59.628;17.852;2023-03-20T06:47:54;13.20;;;6.27;;
12122;SDS011;6125;59.628;17.852;2023-03-20T06:50:21;12.30;;;6.90;;
12122;SDS011;6125;59.628;17.852;2023-03-20T06:52:48;14.73;;;7.03;;
12122;SDS011;6125;59.628;17.852;2023-03-20T06:55:16;13.43;;;7.13;;
12122;SDS011;6125;59.628;17.852;2023-03-20T06:57:43;13.37;;;6.70;;
12122;SDS011;6125;59.628;17.852;2023-03-20T07:00:11;15.93;;;7.67;;
12122;SDS011;6125;59.628;17.852;2023-03-20T07:02:40;12.00;;;7.13;;
12122;SDS011;6125;59.628;17.852;2023-03-20T07:05:08;13.03;;;7.33;;
12122;SDS011;6125;59.628;17.852;2023-03-20T07:07:35;13.00;;;7.47;;
12122;SDS011;6125;59.628;17.852;2023-03-20T07:10:03;14.50;;;6.90;;
12122;SDS011;6125;59.628;17.852;2023-03-20T07:12:30;21.30;;;8.57;;
12122;SDS011;6125;59.628;17.852;2023-03-20T07:14:58;14.73;;;7.60;;
12122;SDS011;6125;59.628;17.852;2023-03-20T07:17:26;20.57;;;8.27;;
12122;SDS011;6125;59.628;17.852;2023-03-20T07:19:54;16.77;;;8.27;;
12122;SDS011;6125;59.628;17.852;2023-03-20T07:22:22;17.57;;;8.40;;
12122;SDS011;6125;59.628;17.852;2023-03-20T07:24:58;17.63;;;8.37;;
12122;SDS011;6125;59.628;17.852;2023-03-20T07:27:25;18.70;;;8.10;;
12122;SDS011;6125;59.628;17.852;2023-03-20T07:29:52;18.30;;;8.33;;
12122;SDS011;6125;59.628;17.852;2023-03-20T07:32:19;16.70;;;7.93;;
12122;SDS011;6125;59.628;17.852;2023-03-20T07:34:47;15.73;;;7.83;;
12122;SDS011;6125;59.628;17.852;2023-03-20T07:37:15;13.07;;;8.07;;
12122;SDS011;6125;59.628;17.852;2023-03-20T07:39:43;15.27;;;8.40;;
12122;SDS011;6125;59.628;17.852;2023-03-20T07:42:10;15.87;;;7.73;;
12122;SDS011;6125;59.628;17.852;2023-03-20T07:44:37;13.93;;;8.10;;
12122;SDS011;6125;59.628;17.852;2023-03-20T07:47:05;15.30;;;8.23;;
12122;SDS011;6125;59.628;17.852;2023-03-20T07:49:32;15.93;;;8.40;;
12122;SDS011;6125;59.628;17.852;2023-03-20T07:51:59;15.00;;;8.67;;
12122;SDS011;6125;59.628;17.852;2023-03-20T07:54:28;17.23;;;8.77;;
12122;SDS011;6125;59.628;17.852;2023-03-20T07:56:55;14.40;;;8.47;;
12122;SDS011;6125;59.628;17.852;2023-03-20T07:59:22;17.70;;;9.60;;
12122;SDS011;6125;59.628;17.852;2023-03-20T08:01:49;14.70;;;8.47;;
12122;SDS011;6125;59.628;17.852;2023-03-20T08:04:16;17.20;;;9.50;;
12122;SDS011;6125;59.628;17.852;2023-03-20T08:06:46;20.10;;;9.97;;
12122;SDS011;6125;59.628;17.852;2023-03-20T08:09:13;15.07;;;9.40;;
12122;SDS011;6125;59.628;17.852;2023-03-20T08:11:42;18.23;;;8.77;;
12122;SDS011;6125;59.628;17.852;2023-03-20T08:14:09;15.10;;;9.37;;
12122;SDS011;6125;59.628;17.852;2023-03-20T08:16:37;16.20;;;9.60;;
12122;SDS011;6125;59.628;17.852;2023-03-20T08:19:04;20.20;;;10.23;;
12122;SDS011;6125;59.628;17.852;2023-03-20T08:21:31;16.90;;;9.87;;
12122;SDS011;6125;59.628;17.852;2023-03-20T08:23:58;15.87;;;10.00;;
12122;SDS011;6125;59.628;17.852;2023-03-20T08:26:25;17.77;;;9.57;;
12122;SDS011;6125;59.628;17.852;2023-03-20T08:28:54;21.07;;;10.43;;
12122;SDS011;6125;59.628;17.852;2023-03-20T08:31:22;20.60;;;10.50;;
12122;SDS011;6125;59.628;17.852;2023-03-20T08:33:49;18.63;;;9.97;;
12122;SDS011;6125;59.628;17.852;2023-03-20T08:36:16;17.60;;;9.87;;
12122;SDS011;6125;59.628;17.852;2023-03-20T08:38:46;20.50;;;10.97;;
12122;SDS011;6125;59.628;17.852;2023-03-20T08:41:14;21.20;;;9.80;;
12122;SDS011;6125;59.628;17.852;2023-03-20T08:43:42;19.03;;;10.17;;
12122;SDS011;6125;59.628;17.852;2023-03-20T08:46:10;22.10;;;11.50;;
12122;SDS011;6125;59.628;17.852;2023-03-20T08:48:37;22.13;;;11.03;;
12122;SDS011;6125;59.628;17.852;2023-03-20T08:51:05;18.17;;;10.00;;
12122;SDS011;6125;59.628;17.852;2023-03-20T08:53:33;17.87;;;10.17;;
12122;SDS011;6125;59.628;17.852;2023-03-20T08:56:00;20.97;;;11.30;;
12122;SDS011;6125;59.628;17.852;2023-03-20T08:58:27;17.93;;;10.43;;
12122;SDS011;6125;59.628;17.852;2023-03-20T09:00:54;19.47;;;9.83;;
12122;SDS011;6125;59.628;17.852;2023-03-20T09:03:24;23.97;;;10.70;;
12122;SDS011;6125;59.628;17.852;2023-03-20T09:05:51;20.03;;;10.03;;
12122;SDS011;6125;59.628;17.852;2023-03-20T09:08:18;18.67;;;10.13;;
12122;SDS011;6125;59.628;17.852;2023-03-20T09:10:46;19.77;;;11.13;;
12122;SDS011;6125;59.628;17.852;2023-03-20T09:13:14;19.07;;;10.47;;
12122;SDS011;6125;59.628;17.852;2023-03-20T09:15:41;18.13;;;10.27;;
12122;SDS011;6125;59.628;17.852;2023-03-20T09:18:08;17.47;;;9.67;;
12122;SDS011;6125;59.628;17.852;2023-03-20T09:20:36;18.47;;;10.37;;
12122;SDS011;6125;59.628;17.852;2023-03-20T09:23:03;16.23;;;9.70;;
12122;SDS011;6125;59.628;17.852;2023-03-20T09:25:30;15.50;;;9.80;;
12122;SDS011;6125;59.628;17.852;2023-03-20T09:27:58;21.37;;;11.47;;
12122;SDS011;6125;59.628;17.852;2023-03-20T09:30:25;16.03;;;10.60;;
12122;SDS011;6125;59.628;17.852;2023-03-20T09:32:52;18.17;;;10.43;;
12122;SDS011;6125;59.628;17.852;2023-03-20T09:35:19;19.00;;;10.63;;
12122;SDS011;6125;59.628;17.852;2023-03-20T09:37:47;16.13;;;10.40;;
12122;SDS011;6125;59.628;17.852;2023-03-20T09:40:19;20.50;;;11.20;;
12122;SDS011;6125;59.628;17.852;2023-03-20T09:42:52;20.77;;;12.03;;
12122;SDS011;6125;59.628;17.852;2023-03-20T09:45:33;19.07;;;10.57;;
12122;SDS011;6125;59.628;17.852;2023-03-20T09:48:10;23.50;;;11.40;;
12122;SDS011;6125;59.628;17.852;2023-03-20T09:50:45;24.00;;;10.87;;
12122;SDS011;6125;59.628;17.852;2023-03-20T09:53:24;18.03;;;10.17;;
12122;SDS011;6125;59.628;17.852;2023-03-20T09:55:55;21.03;;;11.50;;
12122;SDS011;6125;59.628;17.852;2023-03-20T09:58:23;18.17;;;10.23;;
12122;SDS011;6125;59.628;17.852;2023-03-20T10:00:54;17.63;;;10.43;;
12122;SDS011;6125;59.628;17.852;2023-03-20T10:03:25;16.47;;;10.03;;
12122;SDS011;6125;59.628;17.852;2023-03-20T10:05:57;17.70;;;10.97;;
12122;SDS011;6125;59.628;17.852;2023-03-20T10:08:30;16.77;;;10.77;;
12122;SDS011;6125;59.628;17.852;2023-03-20T10:11:02;16.97;;;10.43;;
12122;SDS011;6125;59.628;17.852;2023-03-20T10:13:42;16.40;;;10.53;;
12122;SDS011;6125;59.628;17.852;2023-03-20T10:16:23;18.00;;;10.17;;
12122;SDS011;6125;59.628;17.852;2023-03-20T10:18:59;17.13;;;10.47;;
12122;SDS011;6125;59.628;17.852;2023-03-20T10:21:33;15.53;;;9.73;;
12122;SDS011;6125;59.628;17.852;2023-03-20T10:24:08;18.57;;;10.50;;
12122;SDS011;6125;59.628;17.852;2023-03-20T10:26:51;16.57;;;9.77;;
12122;SDS011;6125;59.628;17.852;2023-03-20T10:29:23;15.97;;;10.03;;
12122;SDS011;6125;59.628;17.852;2023-03-20T10:31:59;18.40;;;10.00;;
12122;SDS011;6125;59.628;17.852;2023-03-20T10:34:38;15.27;;;9.90;;
12122;SDS011;6125;59.628;17.852;2023-03-20T10:37:17;15.67;;;9.50;;
12122;SDS011;6125;59.628;17.852;2023-03-20T10:40:01;15.23;;;9.63;;
12122;SDS011;6125;59.628;17.852;2023-03-20T10:42:43;18.60;;;10.17;;
12122;SDS011;6125;59.628;17.852;2023-03-20T10:45:17;14.83;;;9.53;;
12122;SDS011;6125;59.628;17.852;2023-03-20T10:47:51;16.63;;;9.97;;
12122;SDS011;6125;59.628;17.852;2023-03-20T10:50:22;13.77;;;9.80;;
12122;SDS011;6125;59.628;17.852;2023-03-20T10:52:54;18.17;;;9.90;;
12122;SDS011;6125;59.628;17.852;2023-03-20T10:55:24;15.40;;;10.03;;
12122;SDS011;6125;59.628;17.852;2023-03-20T10:57:55;15.63;;;10.20;;
12122;SDS011;6125;59.628;17.852;2023-03-20T11:00:27;18.93;;;10.67;;
12122;SDS011;6125;59.628;17.852;2023-03-20T11:02:54;16.60;;;9.77;;
12122;SDS011;6125;59.628;17.852;2023-03-20T11:05:22;15.10;;;9.77;;
12122;SDS011;6125;59.628;17.852;2023-03-20T11:07:59;15.30;;;9.07;;
12122;SDS011;6125;59.628;17.852;2023-03-20T11:10:30;15.37;;;9.50;;
12122;SDS011;6125;59.628;17.852;2023-03-20T11:12:58;17.70;;;10.20;;
12122;SDS011;6125;59.628;17.852;2023-03-20T11:15:39;15.80;;;10.07;;
12122;SDS011;6125;59.628;17.852;2023-03-20T11:18:08;15.93;;;10.10;;
12122;SDS011;6125;59.628;17.852;2023-03-20T11:20:38;19.27;;;10.40;;
12122;SDS011;6125;59.628;17.852;2023-03-20T11:23:13;16.30;;;10.47;;
12122;SDS011;6125;59.628;17.852;2023-03-20T11:25:47;13.90;;;9.70;;
12122;SDS011;6125;59.628;17.852;2023-03-20T11:28:17;15.30;;;9.67;;
12122;SDS011;6125;59.628;17.852;2023-03-20T11:30:56;14.33;;;9.50;;
12122;SDS011;6125;59.628;17.852;2023-03-20T11:33:24;14.93;;;9.87;;
12122;SDS011;6125;59.628;17.852;2023-03-20T11:35:53;17.37;;;9.57;;
12122;SDS011;6125;59.628;17.852;2023-03-20T11:38:22;15.43;;;9.83;;
12122;SDS011;6125;59.628;17.852;2023-03-20T11:40:51;14.47;;;9.20;;
12122;SDS011;6125;59.628;17.852;2023-03-20T11:43:18;14.97;;;9.37;;
12122;SDS011;6125;59.628;17.852;2023-03-20T11:45:47;15.13;;;9.37;;
12122;SDS011;6125;59.628;17.852;2023-03-20T11:48:17;14.50;;;8.80;;
12122;SDS011;6125;59.628;17.852;2023-03-20T11:50:46;12.53;;;9.00;;
12122;SDS011;6125;59.628;17.852;2023-03-20T11:53:21;12.63;;;8.63;;
12122;SDS011;6125;59.628;17.852;2023-03-20T11:58:48;11.67;;;8.57;;
12122;SDS011;6125;59.628;17.852;2023-03-20T12:01:21;12.67;;;8.23;;
12122;SDS011;6125;59.628;17.852;2023-03-20T12:03:49;13.57;;;8.20;;
12122;SDS011;6125;59.628;17.852;2023-03-20T12:06:22;10.00;;;7.07;;
12122;SDS011;6125;59.628;17.852;2023-03-20T12:08:52;10.07;;;6.57;;
12122;SDS011;6125;59.628;17.852;2023-03-20T12:11:39;10.07;;;7.30;;
12122;SDS011;6125;59.628;17.852;2023-03-20T12:14:13;11.00;;;7.03;;
12122;SDS011;6125;59.628;17.852;2023-03-20T12:17:10;11.23;;;7.07;;
12122;SDS011;6125;59.628;17.852;2023-03-20T12:19:53;10.40;;;6.67;;
12122;SDS011;6125;59.628;17.852;2023-03-20T12:22:25;10.43;;;7.00;;
12122;SDS011;6125;59.628;17.852;2023-03-20T12:25:00;11.50;;;7.03;;
12122;SDS011;6125;59.628;17.852;2023-03-20T12:27:35;8.27;;;5.50;;
12122;SDS011;6125;59.628;17.852;2023-03-20T12:30:11;3.30;;;2.70;;
12122;SDS011;6125;59.628;17.852;2023-03-20T12:32:44;2.13;;;1.40;;
12122;SDS011;6125;59.628;17.852;2023-03-20T12:35:18;3.20;;;1.17;;
12122;SDS011;6125;59.628;17.852;2023-03-20T12:37:50;1.37;;;0.80;;
12122;SDS011;6125;59.628;17.852;2023-03-20T12:40:17;1.33;;;1.20;;
12122;SDS011;6125;59.628;17.852;2023-03-20T12:42:54;1.20;;;1.10;;
12122;SDS011;6125;59.628;17.852;2023-03-20T12:45:27;1.30;;;1.20;;
12122;SDS011;6125;59.628;17.852;2023-03-20T12:48:05;0.83;;;0.83;;
12122;SDS011;6125;59.628;17.852;2023-03-20T12:50:43;0.80;;;0.80;;
12122;SDS011;6125;59.628;17.852;2023-03-20T12:53:24;0.90;;;0.73;;
12122;SDS011;6125;59.628;17.852;2023-03-20T12:56:01;0.87;;;0.87;;
12122;SDS011;6125;59.628;17.852;2023-03-20T12:58:40;0.63;;;0.63;;
12122;SDS011;6125;59.628;17.852;2023-03-20T13:01:11;0.70;;;0.70;;
12122;SDS011;6125;59.628;17.852;2023-03-20T13:03:47;0.47;;;0.47;;
12122;SDS011;6125;59.628;17.852;2023-03-20T13:06:27;0.80;;;0.80;;
12122;SDS011;6125;59.628;17.852;2023-03-20T13:09:12;1.10;;;0.83;;
12122;SDS011;6125;59.628;17.852;2023-03-20T13:12:01;1.10;;;0.90;;
12122;SDS011;6125;59.628;17.852;2023-03-20T13:14:36;0.80;;;0.80;;
12122;SDS011;6125;59.628;17.852;2023-03-20T13:17:12;0.70;;;0.70;;
12122;SDS011;6125;59.628;17.852;2023-03-20T13:19:44;0.97;;;0.80;;
12122;SDS011;6125;59.628;17.852;2023-03-20T13:22:18;0.70;;;0.70;;
12122;SDS011;6125;59.628;17.852;2023-03-20T13:24:58;0.80;;;0.80;;
12122;SDS011;6125;59.628;17.852;2023-03-20T13:27:31;0.70;;;0.70;;
12122;SDS011;6125;59.628;17.852;2023-03-20T13:30:06;0.60;;;0.60;;
12122;SDS011;6125;59.628;17.852;2023-03-20T13:32:44;0.50;;;0.50;;
12122;SDS011;6125;59.628;17.852;2023-03-20T13:35:22;5.00;;;0.80;;
12122;SDS011;6125;59.628;17.852;2023-03-20T13:37:58;0.83;;;0.80;;
12122;SDS011;6125;59.628;17.852;2023-03-20T13:40:30;0.93;;;0.80;;
12122;SDS011;6125;59.628;17.852;2023-03-20T13:43:03;0.90;;;0.90;;
12122;SDS011;6125;59.628;17.852;2023-03-20T13:45:40;1.50;;;1.20;;
12122;SDS011;6125;59.628;17.852;2023-03-20T13:48:12;1.23;;;1.10;;
12122;SDS011;6125;59.628;17.852;2023-03-20T13:50:50;0.57;;;0.57;;
12122;SDS011;6125;59.628;17.852;2023-03-20T13:53:27;0.90;;;0.73;;
12122;SDS011;6125;59.628;17.852;2023-03-20T13:55:59;0.40;;;0.40;;
12122;SDS011;6125;59.628;17.852;2023-03-20T13:58:45;0.90;;;0.90;;
12122;SDS011;6125;59.628;17.852;2023-03-20T14:01:30;0.60;;;0.60;;
12122;SDS011;6125;59.628;17.852;2023-03-20T14:04:06;0.73;;;0.60;;
12122;SDS011;6125;59.628;17.852;2023-03-20T14:09:27;0.53;;;0.53;;
12122;SDS011;6125;59.628;17.852;2023-03-20T14:12:00;0.50;;;0.50;;
12122;SDS011;6125;59.628;17.852;2023-03-20T14:14:30;0.50;;;0.50;;
12122;SDS011;6125;59.628;17.852;2023-03-20T14:17:05;0.30;;;0.30;;
12122;SDS011;6125;59.628;17.852;2023-03-20T14:19:39;0.50;;;0.50;;
12122;SDS011;6125;59.628;17.852;2023-03-20T14:22:06;0.40;;;0.40;;
12122;SDS011;6125;59.628;17.852;2023-03-20T14:24:41;0.60;;;0.60;;
12122;SDS011;6125;59.628;17.852;2023-03-20T14:27:19;0.40;;;0.40;;
12122;SDS011;6125;59.628;17.852;2023-03-20T14:29:47;0.30;;;0.30;;
12122;SDS011;6125;59.628;17.852;2023-03-20T14:32:28;0.93;;;0.40;;
12122;SDS011;6125;59.628;17.852;2023-03-20T14:34:59;0.40;;;0.40;;
12122;SDS011;6125;59.628;17.852;2023-03-20T14:37:35;0.50;;;0.50;;
12122;SDS011;6125;59.628;17.852;2023-03-20T14:40:12;0.40;;;0.40;;
12122;SDS011;6125;59.628;17.852;2023-03-20T14:42:46;0.50;;;0.50;;
12122;SDS011;6125;59.628;17.852;2023-03-20T14:48:10;0.30;;;0.30;;
12122;SDS011;6125;59.628;17.852;2023-03-20T14:50:50;0.47;;;0.40;;
12122;SDS011;6125;59.628;17.852;2023-03-20T14:53:26;0.70;;;0.43;;
12122;SDS011;6125;59.628;17.852;2023-03-20T14:56:00;0.40;;;0.40;;
12122;SDS011;6125;59.628;17.852;2023-03-20T14:58:45;0.40;;;0.40;;
12122;SDS011;6125;59.628;17.852;2023-03-20T15:01:15;0.47;;;0.40;;
12122;SDS011;6125;59.628;17.852;2023-03-20T15:03:50;0.30;;;0.30;;
12122;SDS011;6125;59.628;17.852;2023-03-20T15:06:20;0.33;;;0.33;;
12122;SDS011;6125;59.628;17.852;2023-03-20T15:08:50;0.20;;;0.20;;
12122;SDS011;6125;59.628;17.852;2023-03-20T15:11:20;0.40;;;0.40;;
12122;SDS011;6125;59.628;17.852;2023-03-20T15:13:48;0.30;;;0.30;;
12122;SDS011;6125;59.628;17.852;2023-03-20T15:16:17;0.20;;;0.20;;
12122;SDS011;6125;59.628;17.852;2023-03-20T15:18:53;0.30;;;0.30;;